Ergebnisse Rekordversuch Apeldoorn 2011

Gerard Ahrens

Hier könnt ihr die Ergebnisse des Weltrekordevents im Omnisport in Apeldoorn 2011 sehen, die uns Gerard Ahrens zur Verfügung gestellt hat.

Ihr könnt die Ergbnisse auch bei mylaps sehen.

Bei uns liegen sie in einem "Akkordeon" vor. Wenn ihr auf den Titel klickt, bekommt ihr die Listen zu sehen oder könnt die Listen auch wieder auf die Überschrift reduzieren, um zur nächste Liste zu gelangen.

Sind die Tabellen zu groß könnt ihr nach links und rechts scrollen.

Außerdem könnt ihr die Tabellen nach dem jeweiligen Spaltentitel sortieren lassen, wenn ihr den entsprechenden Spaltentitel anklickt

 

Rekordversuche Apeldoorn 2011

Rekordversuche Apeldoorn 2011

Vorname Nachname Klasse Alter Disziplin Rad Nat. Tot. Tijd AVG (km/h)
Sebastiaan Bowier M   1000m Stehender Start VeloX NL 01:05.414 55,03
Pieter Hollebrandse M   1h M5 HR NL 56:32.741 51,20
Bas von de Kooij M 15 1h ELAN Tyrfing NL 15:06.526 45,67
Andrea Gallo M   1h Eigenbau IT 1:00:39.473 46,2233
Bram Moens M   1h M5 HR Spezial NL 25:35.990 48,05
Janneke Sindram W 23 1h ELAN Tyrfing NL 1:00:19.119 46,5047
Sebastiaan Bowier M   200m Sprint (fliegender Start) VeloX NL 11,284 63,8072
Bas von de Kooij M 15 200m Sprint (fliegender Start) ElAN Tyrfing NL 11,299 63,7225
David Verbroekken M   200m Sprint (fliegender Start) RazzFazz NL 12,203 59,0019
Guido Mertens M 47 200m Sprint (fliegender Start) Jester 2*26“ D 15,895 45,2973
Daniel Fenn M   1000m Stehender Start EVO-K D 01:01.925 58,13
Bas von de Kooij M 15 1000m Stehender Start ELAN Tyrfing NL 01:04.424 53,39
David Verbroekken M   1000m Stehender Start RazzFazz NL 01:11.637 50,25
Guido Mertens M 47 1000m Stehender Start Jester 2*26“ D 01:14.263 48,48
David Wielemaker M   1000m Stehender Start M5 CLR NL 01:09.253 51,98
Andrea Gallo M   1000m Stehender Start Eigenbau IT 01:15.121 47,92
Pieter Hollebrandse Stundenrekordversuch Apeldoorn 2011

Pieter Hollebrandse Stundenrekordversuch Apeldoorn 2011

Ronden Rundenzeit AVG (km/h) Zeit Uhrzeit
  Gesamtschnitt: 51,20    
0 -.--- 0 1 10:31:30.818
1 24.321 37 24.322 10:31:55.139
2 16.338 55 40.660 10:32:11.477
3 15.754 57 56.414 10:32:27.231
4 15.755 57 01:12.169 10:32:42.986
5 16.099 55 01:28.268 10:32:59.085
6 16.240 55 01:44.508 10:33:15.325
7 16.367 54 02:00.875 10:33:31.692
8 16.474 54 02:17.349 10:33:48.166
9 16.560 54 02:33.909 10:34:04.726
10 16.635 54 02:50.544 10:34:21.361
11 16.479 54 03:07.023 10:34:37.840
12 16.670 53 03:23.693 10:34:54.510
13 16.860 53 03:40.553 10:35:11.370
14 16.848 53 03:57.401 10:35:28.218
15 16.877 53 04:14.278 10:35:45.095
16 16.948 53 04:31.226 10:36:02.043
17 17.016 52 04:48.242 10:36:19.059
18 16.843 53 05:05.085 10:36:35.902
19 16.978 53 05:22.063 10:36:52.880
20 16.927 53 05:38.990 10:37:09.807
21 16.950 53 05:55.940 10:37:26.757
22 16.719 53 06:12.659 10:37:43.476
23 16.865 53 06:29.524 10:38:00.341
24 17.203 52 06:46.727 10:38:17.544
25 17.066 52 07:03.793 10:38:34.610
26 17.025 52 07:20.818 10:38:51.635
27 17.234 52 07:38.052 10:39:08.869
28 17.204 52 07:55.256 10:39:26.073
29 17.070 52 08:12.326 10:39:43.143
30 17.049 52 08:29.375 10:40:00.192
31 16.975 53 08:46.350 10:40:17.167
32 16.907 53 09:03.257 10:40:34.074
33 17.181 52 09:20.438 10:40:51.255
34 17.151 52 09:37.589 10:41:08.406
35 17.214 52 09:54.803 10:41:25.620
36 17.264 52 10:12.067 10:41:42.884
37 17.249 52 10:29.316 10:42:00.133
38 17.230 52 10:46.546 10:42:17.363
39 17.456 51 11:04.002 10:42:34.819
40 17.262 52 11:21.264 10:42:52.081
41 17.147 52 11:38.411 10:43:09.228
42 17.339 51 11:55.750 10:43:26.567
43 17.431 51 12:13.181 10:43:43.998
44 17.541 51 12:30.722 10:44:01.539
45 17.500 51 12:48.222 10:44:19.039
46 17.375 51 13:05.597 10:44:36.414
47 17.131 52 13:22.728 10:44:53.545
48 16.993 52 13:39.721 10:45:10.538
49 17.020 52 13:56.741 10:45:27.558
50 17.180 52 14:13.921 10:45:44.738
51 17.311 51 14:31.232 10:46:02.049
52 17.187 52 14:48.419 10:46:19.236
53 17.226 52 15:05.645 10:46:36.462
54 17.306 52 15:22.951 10:46:53.768
55 17.356 51 15:40.307 10:47:11.124
56 17.476 51 15:57.783 10:47:28.600
57 17.371 51 16:15.154 10:47:45.971
58 17.264 52 16:32.418 10:48:03.235
59 17.316 51 16:49.734 10:48:20.551
60 17.259 52 17:06.993 10:48:37.810
61 17.272 52 17:24.265 10:48:55.082
62 17.348 51 17:41.613 10:49:12.430
63 17.223 52 17:58.836 10:49:29.653
64 17.395 51 18:16.231 10:49:47.048
65 17.503 51 18:33.734 10:50:04.551
66 17.616 51 18:51.350 10:50:22.167
67 17.537 51 19:08.887 10:50:39.704
68 17.652 50 19:26.539 10:50:57.356
69 17.491 51 19:44.030 10:51:14.847
70 17.587 51 20:01.617 10:51:32.434
71 17.625 51 20:19.242 10:51:50.059
72 17.501 51 20:36.743 10:52:07.560
73 17.371 51 20:54.114 10:52:24.931
74 17.544 51 21:11.658 10:52:42.475
75 17.423 51 21:29.081 10:52:59.898
76 17.317 51 21:46.398 10:53:17.215
77 17.149 52 22:03.547 10:53:34.364
78 17.288 52 22:20.835 10:53:51.652
79 17.333 51 22:38.168 10:54:08.985
80 17.528 51 22:55.696 10:54:26.513
81 17.404 51 23:13.100 10:54:43.917
82 17.193 52 23:30.293 10:55:01.110
83 17.241 52 23:47.534 10:55:18.351
84 17.265 52 24:04.799 10:55:35.616
85 17.224 52 24:22.023 10:55:52.840
86 17.340 51 24:39.363 10:56:10.180
87 17.341 51 24:56.704 10:56:27.521
88 17.378 51 25:14.082 10:56:44.899
89 17.245 52 25:31.327 10:57:02.144
90 17.311 51 25:48.638 10:57:19.455
91 17.328 51 26:05.966 10:57:36.783
92 17.227 52 26:23.193 10:57:54.010
93 17.446 51 26:40.639 10:58:11.456
94 17.620 51 26:58.259 10:58:29.076
95 17.631 51 27:15.890 10:58:46.707
96 17.724 50 27:33.614 10:59:04.431
97 17.393 51 27:51.007 10:59:21.824
98 17.535 51 28:08.542 10:59:39.359
99 17.472 51 28:26.014 10:59:56.831
100 17.360 51 28:43.374 11:00:14.191
101 17.191 52 29:00.565 11:00:31.382
102 17.249 52 29:17.814 11:00:48.631
103 17.212 52 29:35.026 11:01:05.843
104 17.214 52 29:52.240 11:01:23.057
105 17.321 51 30:09.561 11:01:40.378
106 17.427 51 30:26.988 11:01:57.805
107 17.434 51 30:44.422 11:02:15.239
108 17.312 51 31:01.734 11:02:32.551
109 17.171 52 31:18.905 11:02:49.722
110 17.260 52 31:36.165 11:03:06.982
111 17.350 51 31:53.515 11:03:24.332
112 17.347 51 32:10.862 11:03:41.679
113 17.322 51 32:28.184 11:03:59.001
114 17.442 51 32:45.626 11:04:16.443
115 17.338 51 33:02.964 11:04:33.781
116 17.306 52 33:20.270 11:04:51.087
117 17.421 51 33:37.691 11:05:08.508
118 17.353 51 33:55.044 11:05:25.861
119 17.384 51 34:12.428 11:05:43.245
120 17.536 51 34:29.964 11:06:00.781
121 17.537 51 34:47.501 11:06:18.318
122 17.497 51 35:04.998 11:06:35.815
123 17.383 51 35:22.381 11:06:53.198
124 17.465 51 35:39.846 11:07:10.663
125 17.443 51 35:57.289 11:07:28.106
126 17.492 51 36:14.781 11:07:45.598
127 17.397 51 36:32.178 11:08:02.995
128 17.448 51 36:49.626 11:08:20.443
129 17.590 51 37:07.216 11:08:38.033
130 17.653 50 37:24.869 11:08:55.686
131 17.568 51 37:42.437 11:09:13.254
132 17.753 50 38:00.190 11:09:31.007
133 17.648 50 38:17.838 11:09:48.655
134 17.704 50 38:35.542 11:10:06.359
135 17.737 50 38:53.279 11:10:24.096
136 17.726 50 39:11.005 11:10:41.822
137 17.689 50 39:28.694 11:10:59.511
138 17.745 50 39:46.439 11:11:17.256
139 17.880 50 40:04.319 11:11:35.136
140 18.114 49 40:22.433 11:11:53.250
141 19.07.2011 47 40:41.440 11:12:12.257
142 18.484 48 40:59.924 11:12:30.741
143 17.806 50 41:17.730 11:12:48.547
144 17.895 50 41:35.625 11:13:06.442
145 17.801 50 41:53.426 11:13:24.243
146 17.618 51 42:11.044 11:13:41.861
147 17.729 50 42:28.773 11:13:59.590
148 17.489 51 42:46.262 11:14:17.079
149 17.346 51 43:03.608 11:14:34.425
150 17.420 51 43:21.028 11:14:51.845
151 17.390 51 43:38.418 11:15:09.235
152 17.439 51 43:55.857 11:15:26.674
153 17.410 51 44:13.267 11:15:44.084
154 17.375 51 44:30.642 11:16:01.459
155 17.378 51 44:48.020 11:16:18.837
156 17.538 51 45:05.558 11:16:36.375
157 17.482 51 45:23.040 11:16:53.857
158 17.444 51 45:40.484 11:17:11.301
159 17.631 51 45:58.115 11:17:28.932
160 17.474 51 46:15.589 11:17:46.406
161 17.504 51 46:33.093 11:18:03.910
162 17.544 51 46:50.637 11:18:21.454
163 17.892 50 47:08.529 11:18:39.346
164 17.965 50 47:26.494 11:18:57.311
165 18.013 49 47:44.507 11:19:15.324
166 17.766 50 48:02.273 11:19:33.090
167 17.708 50 48:19.981 11:19:50.798
168 17.900 50 48:37.881 11:20:08.698
169 18.063 49 48:55.944 11:20:26.761
170 18.301 49 49:14.245 11:20:45.062
171 18.338 49 49:32.583 11:21:03.400
172 18.141 49 49:50.724 11:21:21.541
173 18.030 49 50:08.754 11:21:39.571
174 18.014 49 50:26.768 11:21:57.585
175 18.116 49 50:44.884 11:22:15.701
176 18.169 49 51:03.053 11:22:33.870
177 18.083 49 51:21.136 11:22:51.953
178 17.996 50 51:39.132 11:23:09.949
179 18.125 49 51:57.257 11:23:28.074
180 18.12.2011 49 52:15.269 11:23:46.086
181 18.039 49 52:33.308 11:24:04.125
182 18.321 49 52:51.629 11:24:22.446
183 18.214 49 53:09.843 11:24:40.660
184 18.358 49 53:28.201 11:24:59.018
185 18.486 48 53:46.687 11:25:17.504
186 18.702 48 54:05.389 11:25:36.206
187 18.802 47 54:24.191 11:25:55.008
188 18.758 47 54:42.949 11:26:13.766
189 18.635 48 55:01.584 11:26:32.401
190 19.019 47 55:20.603 11:26:51.420
191 19.030 47 55:39.633 11:27:10.450
192 21.090 42 56:00.723 11:27:31.540
193 32.018 28 56:32.741 11:28:03.558
Bas v.d. Kooij Stundenrekordversuch Apeldoorn 2011

Bas v.d. Kooij Stundenrekordversuch Apeldoorn 2011

Runden Rundenzeit AVG Zeit Uhrzeit
0 -.--- 0 1 11:37:31.946
1 22.752 39 22.753 11:37:54.698
2 18.189 49 40.942 11:38:12.887
3 18.039 49 58.981 11:38:30.926
4 18.141 49 01:17.122 11:38:49.067
5 18.244 49 01:35.366 11:39:07.311
6 18.394 48 01:53.760 11:39:25.705
7 18.464 48 02:12.224 11:39:44.169
8 18.577 48 02:30.801 11:40:02.746
9 18.678 48 02:49.479 11:40:21.424
10 18.785 47 03:08.264 11:40:40.209
11 18.409 48 03:26.673 11:40:58.618
12 18.573 48 03:45.246 11:41:17.191
13 18.696 48 04:03.942 11:41:35.887
14 18.909 47 04:22.851 11:41:54.796
15 19.034 47 04:41.885 11:42:13.830
16 19.102 47 05:00.987 11:42:32.932
17 19.104 47 05:20.091 11:42:52.036
18 19.220 46 05:39.311 11:43:11.256
19 19.287 46 05:58.598 11:43:30.543
20 19.348 46 06:17.946 11:43:49.891
21 19.273 46 06:37.219 11:44:09.164
22 19.222 46 06:56.441 11:44:28.386
23 19.229 46 07:15.670 11:44:47.615
24 19.294 46 07:34.964 11:45:06.909
25 19.273 46 07:54.237 11:45:26.182
26 18.895 47 08:13.132 11:45:45.077
27 18.815 47 08:31.947 11:46:03.892
28 18.737 48 08:50.684 11:46:22.629
29 18.788 47 09:09.472 11:46:41.417
30 18.879 47 09:28.351 11:47:00.296
31 19.157 46 09:47.508 11:47:19.453
32 19.152 46 10:06.660 11:47:38.605
33 19.196 46 10:25.856 11:47:57.801
34 19.278 46 10:45.134 11:48:17.079
35 19.318 46 11:04.452 11:48:36.397
36 19.550 46 11:24.002 11:48:55.947
37 19.865 45 11:43.867 11:49:15.812
38 19.545 46 12:03.412 11:49:35.357
39 19.435 46 12:22.847 11:49:54.792
40 19.266 46 12:42.113 11:50:14.058
41 19.340 46 13:01.453 11:50:33.398
42 19.337 46 13:20.790 11:50:52.735
43 19.780 45 13:40.570 11:51:12.515
44 19.817 45 14:00.387 11:51:32.332
45 21.377 42 14:21.764 11:51:53.709
46 44.762 20 15:06.526 11:52:38.471
  Gesamtschnitt: 45,67    
Andrea Gallo Stundenrekordversuch Apeldoorn 2011

Andrea Gallo Stundenrekordversuch Apeldoorn 2011

Runden Rundenzeit AVG Zeit Uhrzeit
0 -.--- 0 1 12:31:22.468
1 26.751 33 26.752 12:31:49.219
2 18.857 47 45.609 12:32:08.076
3 18.095 49 01:03.704 12:32:26.171
4 17.920 50 01:21.624 12:32:44.091
5 17.967 50 01:39.591 12:33:02.058
6 18.077 49 01:57.668 12:33:20.135
7 18.404 48 02:16.072 12:33:38.539
8 18.435 48 02:34.507 12:33:56.974
9 18.504 48 02:53.011 12:34:15.478
10 18.330 49 03:11.341 12:34:33.808
11 18.454 48 03:29.795 12:34:52.262
12 18.636 48 03:48.431 12:35:10.898
13 18.709 48 04:07.140 12:35:29.607
14 18.876 47 04:26.016 12:35:48.483
15 19.071 47 04:45.087 12:36:07.554
16 19.014 47 05:04.101 12:36:26.568
17 19.085 47 05:23.186 12:36:45.653
18 19.285 46 05:42.471 12:37:04.938
19 19.159 46 06:01.630 12:37:24.097
20 19.019 47 06:20.649 12:37:43.116
21 19.075 47 06:39.724 12:38:02.191
22 19.287 46 06:59.011 12:38:21.478
23 19.240 46 07:18.251 12:38:40.718
24 19.437 46 07:37.688 12:39:00.155
25 19.337 46 07:57.025 12:39:19.492
26 19.346 46 08:16.371 12:39:38.838
27 19.727 45 08:36.098 12:39:58.565
28 19.178 46 08:55.276 12:40:17.743
29 19.074 47 09:14.350 12:40:36.817
30 19.302 46 09:33.652 12:40:56.119
31 19.280 46 09:52.932 12:41:15.399
32 19.356 46 10:12.288 12:41:34.755
33 19.103 47 10:31.391 12:41:53.858
34 19.472 46 10:50.863 12:42:13.330
35 19.255 46 11:10.118 12:42:32.585
36 19.12.2011 47 11:29.130 12:42:51.597
37 19.113 47 11:48.243 12:43:10.710
38 19.292 46 12:07.535 12:43:30.002
39 19.097 47 12:26.632 12:43:49.099
40 19.158 46 12:45.790 12:44:08.257
41 19.227 46 13:05.017 12:44:27.484
42 19.272 46 13:24.289 12:44:46.756
43 19.200 46 13:43.489 12:45:05.956
44 19.388 46 14:02.877 12:45:25.344
45 19.495 46 14:22.372 12:45:44.839
46 19.613 45 14:41.985 12:46:04.452
47 19.245 46 15:01.230 12:46:23.697
48 19.623 45 15:20.853 12:46:43.320
49 19.457 46 15:40.310 12:47:02.777
50 19.504 46 15:59.814 12:47:22.281
51 19.869 45 16:19.683 12:47:42.150
52 19.457 46 16:39.140 12:48:01.607
53 19.259 46 16:58.399 12:48:20.866
54 19.183 46 17:17.582 12:48:40.049
55 19.339 46 17:36.921 12:48:59.388
56 19.647 45 17:56.568 12:49:19.035
57 19.477 46 18:16.045 12:49:38.512
58 19.408 46 18:35.453 12:49:57.920
59 19.622 45 18:55.075 12:50:17.542
60 19.407 46 19:14.482 12:50:36.949
61 19.394 46 19:33.876 12:50:56.343
62 19.248 46 19:53.124 12:51:15.591
63 19.268 46 20:12.392 12:51:34.859
64 19.639 45 20:32.031 12:51:54.498
65 19.648 45 20:51.679 12:52:14.146
66 19.832 45 21:11.511 12:52:33.978
67 20.189 44 21:31.700 12:52:54.167
68 19.936 45 21:51.636 12:53:14.103
69 19.710 45 22:11.346 12:53:33.813
70 20.064 44 22:31.410 12:53:53.877
71 19.666 45 22:51.076 12:54:13.543
72 19.444 46 23:10.520 12:54:32.987
73 19.627 45 23:30.147 12:54:52.614
74 19.656 45 23:49.803 12:55:12.270
75 19.543 46 24:09.346 12:55:31.813
76 19.633 45 24:28.979 12:55:51.446
77 19.732 45 24:48.711 12:56:11.178
78 19.964 45 25:08.675 12:56:31.142
79 19.807 45 25:28.482 12:56:50.949
80 20.017 44 25:48.499 12:57:10.966
81 19.876 45 26:08.375 12:57:30.842
82 19.636 45 26:28.011 12:57:50.478
83 19.461 46 26:47.472 12:58:09.939
84 19.338 46 27:06.810 12:58:29.277
85 19.705 45 27:26.515 12:58:48.982
86 19.617 45 27:46.132 12:59:08.599
87 19.429 46 28:05.561 12:59:28.028
88 19.578 45 28:25.139 12:59:47.606
89 19.658 45 28:44.797 13:00:07.264
90 19.584 45 29:04.381 13:00:26.848
91 19.555 46 29:23.936 13:00:46.403
92 19.507 46 29:43.443 13:01:05.910
93 19.853 45 30:03.296 13:01:25.763
94 20.203 44 30:23.499 13:01:45.966
95 20.484 43 30:43.983 13:02:06.450
96 19.549 46 31:03.532 13:02:25.999
97 19.217 46 31:22.749 13:02:45.216
98 19.439 46 31:42.188 13:03:04.655
99 19.567 45 32:01.755 13:03:24.222
100 19.644 45 32:21.399 13:03:43.866
101 19.603 45 32:41.002 13:04:03.469
102 19.834 45 33:00.836 13:04:23.303
103 19.549 46 33:20.385 13:04:42.852
104 19.420 46 33:39.805 13:05:02.272
105 19.369 46 33:59.174 13:05:21.641
106 19.517 46 34:18.691 13:05:41.158
107 19.676 45 34:38.367 13:06:00.834
108 19.483 46 34:57.850 13:06:20.317
109 19.515 46 35:17.365 13:06:39.832
110 19.206 46 35:36.571 13:06:59.038
111 19.311 46 35:55.882 13:07:18.349
112 19.351 46 36:15.233 13:07:37.700
113 19.389 46 36:34.622 13:07:57.089
114 19.465 46 36:54.087 13:08:16.554
115 19.675 45 37:13.762 13:08:36.229
116 19.829 45 37:33.591 13:08:56.058
117 20.016 44 37:53.607 13:09:16.074
118 20.022 44 38:13.629 13:09:36.096
119 19.707 45 38:33.336 13:09:55.803
120 19.702 45 38:53.038 13:10:15.505
121 19.944 45 39:12.982 13:10:35.449
122 19.538 46 39:32.520 13:10:54.987
123 19.475 46 39:51.995 13:11:14.462
124 19.643 45 40:11.638 13:11:34.105
125 19.975 45 40:31.613 13:11:54.080
126 19.946 45 40:51.559 13:12:14.026
127 19.708 45 41:11.267 13:12:33.734
128 19.932 45 41:31.199 13:12:53.666
129 19.661 45 41:50.860 13:13:13.327
130 19.424 46 42:10.284 13:13:32.751
131 19.599 45 42:29.883 13:13:52.350
132 19.503 46 42:49.386 13:14:11.853
133 19.551 46 43:08.937 13:14:31.404
134 19.545 46 43:28.482 13:14:50.949
135 19.448 46 43:47.930 13:15:10.397
136 19.220 46 44:07.150 13:15:29.617
137 19.312 46 44:26.462 13:15:48.929
138 19.423 46 44:45.885 13:16:08.352
139 19.702 45 45:05.587 13:16:28.054
140 19.769 45 45:25.356 13:16:47.823
141 19.806 45 45:45.162 13:17:07.629
142 20.080 44 46:05.242 13:17:27.709
143 20.156 44 46:25.398 13:17:47.865
144 20.090 44 46:45.488 13:18:07.955
145 19.810 45 47:05.298 13:18:27.765
146 19.853 45 47:25.151 13:18:47.618
147 19.916 45 47:45.067 13:19:07.534
148 20.013 44 48:05.080 13:19:27.547
149 20.255 44 48:25.335 13:19:47.802
150 20.034 44 48:45.369 13:20:07.836
151 19.632 45 49:05.001 13:20:27.468
152 19.692 45 49:24.693 13:20:47.160
153 19.589 45 49:44.282 13:21:06.749
154 19.586 45 50:03.868 13:21:26.335
155 19.906 45 50:23.774 13:21:46.241
156 19.562 46 50:43.336 13:22:05.803
157 19.211 46 51:02.547 13:22:25.014
158 19.227 46 51:21.774 13:22:44.241
159 19.340 46 51:41.114 13:23:03.581
160 19.413 46 52:00.527 13:23:22.994
161 19.518 46 52:20.045 13:23:42.512
162 19.241 46 52:39.286 13:24:01.753
163 19.112 47 52:58.398 13:24:20.865
164 19.175 46 53:17.573 13:24:40.040
165 19.230 46 53:36.803 13:24:59.270
166 19.281 46 53:56.084 13:25:18.551
167 19.375 46 54:15.459 13:25:37.926
168 19.560 46 54:35.019 13:25:57.486
169 19.587 45 54:54.606 13:26:17.073
170 19.661 45 55:14.267 13:26:36.734
171 19.677 45 55:33.944 13:26:56.411
172 19.462 46 55:53.406 13:27:15.873
173 19.423 46 56:12.829 13:27:35.296
174 19.711 45 56:32.540 13:27:55.007
175 19.449 46 56:51.989 13:28:14.456
176 19.418 46 57:11.407 13:28:33.874
177 19.262 46 57:30.669 13:28:53.136
178 18.754 47 57:49.423 13:29:11.890
179 18.750 48 58:08.173 13:29:30.640
180 18.711 48 58:26.884 13:29:49.351
181 18.694 48 58:45.578 13:30:08.045
182 18.828 47 59:04.406 13:30:26.873
183 19.264 46 59:23.670 13:30:46.137
184 18.965 47 59:42.635 13:31:05.102
185 19.020 47 1:00:01.655 13:31:24.122
186 19.083 47 1:00:20.738 13:31:43.205
187 18.735 48 1:00:39.473 13:32:01.940
  Strecke (km) in 1 Stunde: 46,2233    
Bram Moens Stundenrekordversuch Apeldoorn 2011

Bram Moens Stundenrekordversuch Apeldoorn 2011

runden Rundenzeit AVG Zeit Uhrzeit
  Gesamtschnitt: 48,05    
0 -.--- 0 1 16:13:39.544
1 29.402 30 29.403 16:14:08.946
2 18.064 49 47.467 16:14:27.010
3 17.636 51 01:05.103 16:14:44.646
4 17.759 50 01:22.862 16:15:02.405
5 17.851 50 01:40.713 16:15:20.256
6 17.900 50 01:58.613 16:15:38.156
7 17.939 50 02:16.552 16:15:56.095
8 18.05.2011 49 02:34.557 16:16:14.100
9 18.069 49 02:52.626 16:16:32.169
10 18.041 49 03:10.667 16:16:50.210
11 18.086 49 03:28.753 16:17:08.296
12 18.022 49 03:46.775 16:17:26.318
13 18.052 49 04:04.827 16:17:44.370
14 18.423 48 04:23.250 16:18:02.793
15 18.414 48 04:41.664 16:18:21.207
16 18.147 49 04:59.811 16:18:39.354
17 17.985 50 05:17.796 16:18:57.339
18 18.316 49 05:36.112 16:19:15.655
19 18.299 49 05:54.411 16:19:33.954
20 18.199 49 06:12.610 16:19:52.153
21 18.139 49 06:30.749 16:20:10.292
22 18.296 49 06:49.045 16:20:28.588
23 18.169 49 07:07.214 16:20:46.757
24 18.181 49 07:25.395 16:21:04.938
25 18.134 49 07:43.529 16:21:23.072
26 18.328 49 08:01.857 16:21:41.400
27 18.282 49 08:20.139 16:21:59.682
28 18.270 49 08:38.409 16:22:17.952
29 18.290 49 08:56.699 16:22:36.242
30 18.301 49 09:15 16:22:54.543
31 18.367 49 09:33.367 16:23:12.910
32 18.362 49 09:51.729 16:23:31.272
33 18.254 49 10:09.983 16:23:49.526
34 18.299 49 10:28.282 16:24:07.825
35 18.347 49 10:46.629 16:24:26.172
36 18.322 49 11:04.951 16:24:44.494
37 18.378 48 11:23.329 16:25:02.872
38 18.467 48 11:41.796 16:25:21.339
39 18.327 49 12:00.123 16:25:39.666
40 18.262 49 12:18.385 16:25:57.928
41 18.439 48 12:36.824 16:26:16.367
42 18.341 49 12:55.165 16:26:34.708
43 18.481 48 13:13.646 16:26:53.189
44 18.311 49 13:31.957 16:27:11.500
45 18.375 48 13:50.332 16:27:29.875
46 18.405 48 14:08.737 16:27:48.280
47 18.425 48 14:27.162 16:28:06.705
48 18.384 48 14:45.546 16:28:25.089
49 18.480 48 15:04.026 16:28:43.569
50 18.820 47 15:22.846 16:29:02.389
51 18.637 48 15:41.483 16:29:21.026
52 18.702 48 16:00.185 16:29:39.728
53 18.589 48 16:18.774 16:29:58.317
54 18.374 48 16:37.148 16:30:16.691
55 18.718 48 16:55.866 16:30:35.409
56 18.721 48 17:14.587 16:30:54.130
57 18.724 48 17:33.311 16:31:12.854
58 18.775 47 17:52.086 16:31:31.629
59 18.574 48 18:10.660 16:31:50.203
60 18.623 48 18:29.283 16:32:08.826
61 18.622 48 18:47.905 16:32:27.448
62 18.735 48 19:06.640 16:32:46.183
63 18.623 48 19:25.263 16:33:04.806
64 18.884 47 19:44.147 16:33:23.690
65 18.994 47 20:03.141 16:33:42.684
66 18.720 48 20:21.861 16:34:01.404
67 18.981 47 20:40.842 16:34:20.385
68 18.982 47 20:59.824 16:34:39.367
69 18.994 47 21:18.818 16:34:58.361
70 18.865 47 21:37.683 16:35:17.226
71 18.775 47 21:56.458 16:35:36.001
72 18.783 47 22:15.241 16:35:54.784
73 18.964 47 22:34.205 16:36:13.748
74 18.906 47 22:53.111 16:36:32.654
75 18.875 47 23:11.986 16:36:51.529
76 18.952 47 23:30.938 16:37:10.481
77 18.848 47 23:49.786 16:37:29.329
78 18.760 47 24:08.546 16:37:48.089
79 18.885 47 24:27.431 16:38:06.974
80 19.090 47 24:46.521 16:38:26.064
81 20.410 44 25:06.931 16:38:46.474
82 29.059 30 25:35.990 16:39:15.533
Janneke Sindram Stundenweltrekord Apeldoorn 2011

Janneke Sindram Stundenweltrekord Apeldoorn 2011

Runden Rundenzeit AVG Zeit Uhrzeit
0 -.--- 0 0 18:09:51.846
1 23.506 38 23.506 18:10:15.352
2 17.549 51 41.055 18:10:32.901
3 17.581 51 58.636 18:10:50.482
4 18.156 49 01:16.792 18:11:08.638
5 18.558 48 01:35.350 18:11:27.196
6 18.722 48 01:54.072 18:11:45.918
7 19.02.2011 47 02:13.074 18:12:04.920
8 19.036 47 02:32.110 18:12:23.956
9 19.177 46 02:51.287 18:12:43.133
10 18.965 47 03:10.252 18:13:02.098
11 18.891 47 03:29.143 18:13:20.989
12 19.152 46 03:48.295 18:13:40.141
13 19.130 47 04:07.425 18:13:59.271
14 19.492 46 04:26.917 18:14:18.763
15 19.246 46 04:46.163 18:14:38.009
16 19.165 46 05:05.328 18:14:57.174
17 18.922 47 05:24.250 18:15:16.096
18 18.763 47 05:43.013 18:15:34.859
19 18.934 47 06:01.947 18:15:53.793
20 19.115 47 06:21.062 18:16:12.908
21 19.333 46 06:40.395 18:16:32.241
22 19.200 46 06:59.595 18:16:51.441
23 19.258 46 07:18.853 18:17:10.699
24 19.344 46 07:38.197 18:17:30.043
25 19.286 46 07:57.483 18:17:49.329
26 19.216 46 08:16.699 18:18:08.545
27 19.203 46 08:35.902 18:18:27.748
28 19.331 46 08:55.233 18:18:47.079
29 19.374 46 09:14.607 18:19:06.453
30 19.243 46 09:33.850 18:19:25.696
31 19.060 47 09:52.910 18:19:44.756
32 19.092 47 10:12.002 18:20:03.848
33 19.389 46 10:31.391 18:20:23.237
34 19.367 46 10:50.758 18:20:42.604
35 19.496 46 11:10.254 18:21:02.100
36 19.482 46 11:29.736 18:21:21.582
37 19.094 47 11:48.830 18:21:40.676
38 19.054 47 12:07.884 18:21:59.730
39 19.078 47 12:26.962 18:22:18.808
40 19.146 47 12:46.108 18:22:37.954
41 19.203 46 13:05.311 18:22:57.157
42 19.161 46 13:24.472 18:23:16.318
43 19.169 46 13:43.641 18:23:35.487
44 19.084 47 14:02.725 18:23:54.571
45 18.898 47 14:21.623 18:24:13.469
46 18.788 47 14:40.411 18:24:32.257
47 18.872 47 14:59.283 18:24:51.129
48 19.01.2011 47 15:18.284 18:25:10.130
49 18.909 47 15:37.193 18:25:29.039
50 18.865 47 15:56.058 18:25:47.904
51 18.955 47 16:15.013 18:26:06.859
52 18.831 47 16:33.844 18:26:25.690
53 18.887 47 16:52.731 18:26:44.577
54 19.072 47 17:11.803 18:27:03.649
55 19.109 47 17:30.912 18:27:22.758
56 19.092 47 17:50.004 18:27:41.850
57 19.086 47 18:09.090 18:28:00.936
58 19.258 46 18:28.348 18:28:20.194
59 19.267 46 18:47.615 18:28:39.461
60 19.097 47 19:06.712 18:28:58.558
61 19.120 47 19:25.832 18:29:17.678
62 19.158 46 19:44.990 18:29:36.836
63 19.291 46 20:04.281 18:29:56.127
64 19.308 46 20:23.589 18:30:15.435
65 19.388 46 20:42.977 18:30:34.823
66 19.249 46 21:02.226 18:30:54.072
67 19.370 46 21:21.596 18:31:13.442
68 19.365 46 21:40.961 18:31:32.807
69 19.346 46 22:00.307 18:31:52.153
70 19.323 46 22:19.630 18:32:11.476
71 19.358 46 22:38.988 18:32:30.834
72 19.453 46 22:58.441 18:32:50.287
73 19.483 46 23:17.924 18:33:09.770
74 19.555 46 23:37.479 18:33:29.325
75 19.230 46 23:56.709 18:33:48.555
76 18.845 47 24:15.554 18:34:07.400
77 18.787 47 24:34.341 18:34:26.187
78 18.987 47 24:53.328 18:34:45.174
79 19.076 47 25:12.404 18:35:04.250
80 19.155 46 25:31.559 18:35:23.405
81 19.275 46 25:50.834 18:35:42.680
82 19.316 46 26:10.150 18:36:01.996
83 19.210 46 26:29.360 18:36:21.206
84 19.066 47 26:48.426 18:36:40.272
85 19.239 46 27:07.665 18:36:59.511
86 19.144 47 27:26.809 18:37:18.655
87 19.027 47 27:45.836 18:37:37.682
88 19.290 46 28:05.126 18:37:56.972
89 19.376 46 28:24.502 18:38:16.348
90 19.417 46 28:43.919 18:38:35.765
91 19.581 45 29:03.500 18:38:55.346
92 19.432 46 29:22.932 18:39:14.778
93 19.252 46 29:42.184 18:39:34.030
94 19.345 46 30:01.529 18:39:53.375
95 19.303 46 30:20.832 18:40:12.678
96 19.396 46 30:40.228 18:40:32.074
97 19.408 46 30:59.636 18:40:51.482
98 19.200 46 31:18.836 18:41:10.682
99 19.378 46 31:38.214 18:41:30.060
100 19.537 46 31:57.751 18:41:49.597
101 19.345 46 32:17.096 18:42:08.942
102 19.342 46 32:36.438 18:42:28.284
103 19.089 47 32:55.527 18:42:47.373
104 18.814 47 33:14.341 18:43:06.187
105 19.021 47 33:33.362 18:43:25.208
106 19.246 46 33:52.608 18:43:44.454
107 19.176 46 34:11.784 18:44:03.630
108 18.930 47 34:30.714 18:44:22.560
109 19.107 47 34:49.821 18:44:41.667
110 19.374 46 35:09.195 18:45:01.041
0 -.--- 0 -.--- 18:45:10.912
111 19.393 46 35:28.588 18:45:20.434
112 19.240 46 35:47.828 18:45:39.674
113 18.989 47 36:06.817 18:45:58.663
114 19.213 46 36:26.030 18:46:17.876
115 19.290 46 36:45.320 18:46:37.166
116 19.296 46 37:04.616 18:46:56.462
117 19.390 46 37:24.006 18:47:15.852
118 19.334 46 37:43.340 18:47:35.186
119 19.159 46 38:02.499 18:47:54.345
120 19.353 46 38:21.852 18:48:13.698
121 19.639 45 38:41.491 18:48:33.337
122 19.563 46 39:01.054 18:48:52.900
123 19.440 46 39:20.494 18:49:12.340
124 18.659 48 39:39.153 18:49:31
0 -.--- 0 39:39.950 18:49:31.796
125 20.182 44 39:59.336 18:49:51.182
126 19.575 45 40:18.911 18:50:10.757
127 19.708 45 40:38.619 18:50:30.465
128 20.019 44 40:58.638 18:50:50.484
129 19.872 45 41:18.510 18:51:10.356
130 19.862 45 41:38.372 18:51:30.218
131 19.242 46 41:57.614 18:51:49.460
132 19.239 46 42:16.853 18:52:08.699
133 19.267 46 42:36.120 18:52:27.966
134 19.457 46 42:55.577 18:52:47.423
135 19.528 46 43:15.105 18:53:06.951
136 19.664 45 43:34.769 18:53:26.615
137 19.828 45 43:54.597 18:53:46.444
1 04:14.683 3 43:54.633 18:53:46.479
138 19.489 46 44:14.087 18:54:05.933
139 19.803 45 44:33.890 18:54:25.736
140 19.569 45 44:53.459 18:54:45.305
141 19.662 45 45:13.121 18:55:04.967
142 19.525 46 45:32.646 18:55:24.492
143 19.297 46 45:51.943 18:55:43.789
144 19.122 47 46:11.065 18:56:02.911
145 19.268 46 46:30.333 18:56:22.179
146 19.343 46 46:49.676 18:56:41.522
147 19.372 46 47:09.048 18:57:00.894
148 19.440 46 47:28.488 18:57:20.334
149 19.675 45 47:48.163 18:57:40.009
150 19.806 45 48:07.969 18:57:59.815
151 19.873 45 48:27.842 18:58:19.688
152 19.723 45 48:47.565 18:58:39.411
153 19.901 45 49:07.466 18:58:59.312
154 19.792 45 49:27.258 18:59:19.104
155 19.472 46 49:46.730 18:59:38.576
156 19.680 45 50:06.410 18:59:58.256
157 20.03.2011 44 50:26.413 19:00:18.259
158 19.897 45 50:46.310 19:00:38.156
159 19.498 46 51:05.808 19:00:57.654
160 19.543 46 51:25.351 19:01:17.197
161 19.614 45 51:44.965 19:01:36.811
162 19.827 45 52:04.792 19:01:56.638
163 19.853 45 52:24.645 19:02:16.491
164 19.849 45 52:44.494 19:02:36.340
165 19.676 45 53:04.170 19:02:56.016
166 19.801 45 53:23.971 19:03:15.817
167 19.650 45 53:43.621 19:03:35.467
168 19.990 45 54:03.611 19:03:55.457
169 19.828 45 54:23.439 19:04:15.285
170 19.953 45 54:43.392 19:04:35.238
171 19.484 46 55:02.876 19:04:54.722
172 19.641 45 55:22.517 19:05:14.363
173 19.506 46 55:42.023 19:05:33.869
174 19.461 46 56:01.484 19:05:53.330
175 19.606 45 56:21.090 19:06:12.936
176 19.615 45 56:40.705 19:06:32.551
177 19.756 45 57:00.461 19:06:52.307
178 19.762 45 57:20.223 19:07:12.069
179 19.918 45 57:40.141 19:07:31.987
180 19.933 45 58:00.074 19:07:51.920
181 20.065 44 58:20.139 19:08:11.985
182 20.029 44 58:40.168 19:08:32.014
183 19.945 45 59:00.113 19:08:51.959
184 19.759 45 59:19.872 19:09:11.718
185 19.773 45 59:39.645 19:09:31.491
186 19.985 45 59:59.630 19:09:51.476
187 19.489 46 1:00:19.119 19:10:10.965
  Gesamtschnitt (km/h): 46,50    
  Strecke (km) in 1 Stunde: 46,5047    
200m - fliegender Start Apeldoorn 2011

200m - fliegender Start Apeldoorn 2011

Name Runden Rundenzeit AVG Zeit Uhrzeit
Sebastiaan Bowier 3 11.284 79 18:26.313 14:17:47.638
Bas vd Kooy 0 -.--- 0 04:14.767 14:03:36.092
Bas vd Kooy 1 11.299 79 04:26.066 14:03:47.391
David Verbroekken 0 -.--- 0 05:54.713 14:05:16.038
David Verbroekken 1 12.203 73 06:06.916 14:05:28.241
Guido Mertens 1 01:07.098 13 15:39.560 14:15:00.885
Guido Mertens 2 15.895 56 15:55.455 14:15:16.780
Sebastiaan Bowier 2 01:03.974 14 18:15.029 14:17:36.354
1000m - stehender Start Apeldoorn 2011

1000m - stehender Start Apeldoorn 2011

Nr. Name Runden Rundenzeit Speed Zeit
6 Sebastiaan Bowier 4 14.628 61 01:05.414
8 Daniel Fenn 1 20.416 44 20.416
8 Daniel Fenn 2 13.880 64 34.296
8 Daniel Fenn 3 13.818 65 48.114
8 Daniel Fenn 4 13.811 65 01:01.925
2 Bas vd Kooy 1 21.156 42 21.156
2 Bas vd Kooy 2 15.319 58 36.475
2 Bas vd Kooy 3 15.307 58 51.782
2 Bas vd Kooy 4 15.642 57 01:07.424
4 David Verbroekken 1 22.725 39 22.725
4 David Verbroekken 2 15.882 56 38.607
4 David Verbroekken 3 16.070 56 54.677
4 David Verbroekken 4 16.960 53 01:11.637
7 Guido Mertens 1 25.258 35 25.258
7 Guido Mertens 2 16.796 53 42.054
7 Guido Mertens 3 16.103 55 58.157
7 Guido Mertens 4 16.106 55 01:14.263
5 David Wielemaker 1 21.795 41 21.795
5 David Wielemaker 2 15.724 57 37.519
5 David Wielemaker 3 15.619 57 53.138
5 David Wielemaker 4 16.115 55 01:09.253
3 Andrea Gallo 1 24.270 37 24.270
3 Andrea Gallo 2 16.631 54 40.901
3 Andrea Gallo 3 16.820 53 57.721
3 Andrea Gallo 4 17.400 51 01:15.121
6 Sebastiaan Bowier 1 21.618 41 21.618
6 Sebastiaan Bowier 2 14.774 60 36.392
6 Sebastiaan Bowier 3 14.394 62 50.786
Kriterium 45min Apeldoorn 2011

Kriterium 45min Apeldoorn 2011

Pos Vorname Nachname Nr. Klasse Nat. Gesamtzeit AVG
1 Daniel Fenn 8 M D 45:17.016 57,31
2 Sebastiaan Bowier 6 M NL 45:22.149 48,60
3 Guido Mertens 7 M D 45:31.522 47,78
4 Andrea Gallo 3 M IT 45:32.126 47,11
5 Peter Haan 12   NL 45:31.799 45,14
6 Filip Sheridan 43 M B 45:33.901 43,45
7 David Wielemaker 5 M NL 40:58.021 45,04
8 David Verbroekken 4 M NL 41:36.481 41,46
9 Jan van Steeg 18 M NL 26:06.670 40,79